createdAt,value
2022-11-26T00:00:57.217Z,6.38
2022-11-26T00:03:25.296Z,5.80
2022-11-26T00:05:56.916Z,7.38
2022-11-26T00:08:30.086Z,9.05
2022-11-26T00:10:58.716Z,9.33
2022-11-26T00:13:29.272Z,8.25
2022-11-26T00:15:58.283Z,6.63
2022-11-26T00:18:26.736Z,5.95
2022-11-26T00:21:00.721Z,7.05
2022-11-26T00:23:30.021Z,6.32
2022-11-26T00:26:01.733Z,6.38
2022-11-26T00:28:31.529Z,7.18
2022-11-26T00:31:02.025Z,5.53
2022-11-26T00:33:32.130Z,6.30
2022-11-26T00:36:05.212Z,5.72
2022-11-26T00:38:33.365Z,6.87
2022-11-26T00:41:01.765Z,6.30
2022-11-26T00:43:29.789Z,7.15
2022-11-26T00:45:57.806Z,6.68
2022-11-26T00:48:25.925Z,6.30
2022-11-26T00:50:54.023Z,6.68
2022-11-26T00:53:26.709Z,7.22
2022-11-26T00:55:54.741Z,7.47
2022-11-26T00:58:26.356Z,6.32
2022-11-26T01:00:55.606Z,6.35
2022-11-26T01:03:24.192Z,7.15
2022-11-26T01:05:53.361Z,6.53
2022-11-26T01:08:31.206Z,6.10
2022-11-26T01:10:59.551Z,5.95
2022-11-26T01:13:28.583Z,6.65
2022-11-26T01:15:57.313Z,7.50
2022-11-26T01:18:26.990Z,5.82
2022-11-26T01:20:55.022Z,6.03
2022-11-26T01:23:23.118Z,5.90
2022-11-26T01:25:52.545Z,6.20
2022-11-26T01:28:20.683Z,6.80
2022-11-26T01:30:48.729Z,6.22
2022-11-26T01:33:16.714Z,6.57
2022-11-26T01:35:44.907Z,7.13
2022-11-26T01:38:15.349Z,6.47
2022-11-26T01:41:07.875Z,6.53
2022-11-26T01:43:41.116Z,6.40
2022-11-26T01:46:16.542Z,7.45
2022-11-26T01:48:45.293Z,6.57
2022-11-26T01:51:14.029Z,7.47
2022-11-26T01:53:48.834Z,6.72
2022-11-26T01:56:33.818Z,7.35
2022-11-26T01:59:08.592Z,7.07
2022-11-26T02:01:37.314Z,7.45
2022-11-26T02:04:14.410Z,7.55
2022-11-26T02:06:44.033Z,7.70
2022-11-26T02:09:14.880Z,7.88
2022-11-26T02:11:44.151Z,8.00
2022-11-26T02:14:17.393Z,8.23
2022-11-26T02:17:11.146Z,8.13
2022-11-26T02:20:20.573Z,7.43
2022-11-26T02:23:22.244Z,7.57
2022-11-26T02:26:22.456Z,7.50
2022-11-26T02:29:04.716Z,7.50
2022-11-26T02:31:40.675Z,7.47
2022-11-26T02:34:16.171Z,7.25
2022-11-26T02:36:50.678Z,7.57
2022-11-26T02:39:21.176Z,7.00
2022-11-26T02:41:52.926Z,8.30
2022-11-26T02:44:24.596Z,6.97
2022-11-26T02:46:58.404Z,6.35
2022-11-26T02:49:30.298Z,7.35
2022-11-26T02:52:01.674Z,8.10
2022-11-26T02:54:31.434Z,7.47
2022-11-26T02:57:01.452Z,7.15
2022-11-26T02:59:29.959Z,6.82
2022-11-26T03:02:04.936Z,7.03
2022-11-26T03:04:37.101Z,6.43
2022-11-26T03:07:08.425Z,7.63
2022-11-26T03:09:50.358Z,8.07
2022-11-26T03:12:18.317Z,6.68
2022-11-26T03:14:46.488Z,8.18
2022-11-26T03:17:16.204Z,7.45
2022-11-26T03:19:44.769Z,6.70
2022-11-26T03:22:14.218Z,7.82
2022-11-26T03:24:42.631Z,8.45
2022-11-26T03:27:11.327Z,6.90
2022-11-26T03:29:39.308Z,7.80
2022-11-26T03:32:07.454Z,6.82
2022-11-26T03:34:37.208Z,7.70
2022-11-26T03:37:05.478Z,7.63
2022-11-26T03:39:33.365Z,7.30
2022-11-26T03:42:01.373Z,8.15
2022-11-26T03:44:29.340Z,6.55
2022-11-26T03:46:57.484Z,7.57
2022-11-26T03:49:25.805Z,7.68
2022-11-26T03:51:55.240Z,7.13
2022-11-26T03:54:23.295Z,8.00
2022-11-26T03:56:51.578Z,8.45
2022-11-26T03:59:19.579Z,8.27
2022-11-26T04:01:47.612Z,7.60
2022-11-26T04:04:15.619Z,8.43
2022-11-26T04:06:43.599Z,8.48
2022-11-26T04:09:12.971Z,8.52
2022-11-26T04:11:40.869Z,7.22
2022-11-26T04:14:09.567Z,8.05
2022-11-26T04:16:37.648Z,8.73
2022-11-26T04:19:05.580Z,8.55
2022-11-26T04:21:33.503Z,8.10
2022-11-26T04:24:01.606Z,7.95
2022-11-26T04:26:30.941Z,8.52
2022-11-26T04:28:58.831Z,8.77
2022-11-26T04:31:26.878Z,8.95
2022-11-26T04:33:54.765Z,8.65
2022-11-26T04:36:22.755Z,8.77
2022-11-26T04:38:50.690Z,8.55
2022-11-26T04:41:18.881Z,9.60
2022-11-26T04:43:49.311Z,8.32
2022-11-26T04:46:17.442Z,10.13
2022-11-26T04:48:45.681Z,9.63
2022-11-26T04:51:13.593Z,8.75
2022-11-26T04:53:41.633Z,10.10
2022-11-26T04:56:09.561Z,9.80
2022-11-26T04:58:37.701Z,8.32
2022-11-26T05:01:07.729Z,9.13
2022-11-26T05:03:36.834Z,9.27
2022-11-26T05:06:05.522Z,9.43
2022-11-26T05:08:33.504Z,9.90
2022-11-26T05:11:03.981Z,9.70
2022-11-26T05:13:32.187Z,8.85
2022-11-26T05:16:01.455Z,9.25
2022-11-26T05:18:30.702Z,9.95
2022-11-26T05:20:58.674Z,9.45
2022-11-26T05:23:26.638Z,9.95
2022-11-26T05:25:54.763Z,10.18
2022-11-26T05:28:22.724Z,9.98
2022-11-26T05:30:50.869Z,10.05
2022-11-26T05:33:19.266Z,10.60
2022-11-26T05:35:48.762Z,11.20
2022-11-26T05:38:19.112Z,10.30
2022-11-26T05:40:47.033Z,10.02
2022-11-26T05:43:15.160Z,10.50
2022-11-26T05:45:43.475Z,10.73
2022-11-26T05:48:11.544Z,10.45
2022-11-26T05:50:39.498Z,12.18
2022-11-26T05:53:09.030Z,10.52
2022-11-26T05:55:37.292Z,9.45
2022-11-26T05:58:05.566Z,9.48
2022-11-26T06:00:34.207Z,12.00
2022-11-26T06:03:02.291Z,10.07
2022-11-26T06:05:30.358Z,10.55
2022-11-26T06:07:58.423Z,10.90
2022-11-26T06:10:27.705Z,10.27
2022-11-26T06:12:56.341Z,10.80
2022-11-26T06:15:24.686Z,10.65
2022-11-26T06:17:53.410Z,10.10
2022-11-26T06:20:21.365Z,10.35
2022-11-26T06:22:49.310Z,9.95
2022-11-26T06:25:20.082Z,10.63
2022-11-26T06:27:49.338Z,9.25
2022-11-26T06:30:19.575Z,10.55
2022-11-26T06:32:48.348Z,10.30
2022-11-26T06:35:16.747Z,9.40
2022-11-26T06:37:44.740Z,9.40
2022-11-26T06:40:18.771Z,10.68
2022-11-26T06:45:19.243Z,9.23
2022-11-26T06:47:47.477Z,10.00
2022-11-26T06:50:15.584Z,10.55
2022-11-26T06:52:43.751Z,10.35
2022-11-26T06:55:11.812Z,10.43
2022-11-26T06:57:39.801Z,10.18
2022-11-26T07:00:10.886Z,10.23
2022-11-26T07:02:39.413Z,11.13
2022-11-26T07:05:07.810Z,10.30
2022-11-26T07:07:38.364Z,11.05
2022-11-26T07:10:07.505Z,10.43
2022-11-26T07:12:35.647Z,9.85
2022-11-26T07:15:03.511Z,8.75
2022-11-26T07:17:33.117Z,9.60
2022-11-26T07:20:01.086Z,9.45
2022-11-26T07:22:29.081Z,9.57
2022-11-26T07:24:57.366Z,10.38
2022-11-26T07:27:25.678Z,9.95
2022-11-26T07:29:53.580Z,10.00
2022-11-26T07:32:21.638Z,10.20
2022-11-26T07:34:50.892Z,9.70
2022-11-26T07:37:18.963Z,10.02
2022-11-26T07:39:48.168Z,10.48
2022-11-26T07:42:16.315Z,9.80
2022-11-26T07:44:44.649Z,9.05
2022-11-26T07:47:12.837Z,10.95
2022-11-26T07:49:40.794Z,10.77
2022-11-26T07:52:10.640Z,9.05
2022-11-26T07:54:39.549Z,9.30
2022-11-26T07:57:09.912Z,8.60
2022-11-26T07:59:40.218Z,10.73
2022-11-26T08:02:13.453Z,8.95
2022-11-26T08:04:41.736Z,8.98
2022-11-26T08:07:12.621Z,8.85
2022-11-26T08:09:45.232Z,8.65
2022-11-26T08:12:13.356Z,9.20
2022-11-26T08:14:41.498Z,8.82
2022-11-26T08:17:09.444Z,9.07
2022-11-26T08:19:37.601Z,9.93
2022-11-26T08:22:05.533Z,9.88
2022-11-26T08:24:36.047Z,9.77
2022-11-26T08:27:04.327Z,11.10
2022-11-26T08:29:32.257Z,12.45
2022-11-26T08:32:00.347Z,13.13
2022-11-26T08:34:40.280Z,13.23
2022-11-26T08:37:08.347Z,11.30
2022-11-26T08:39:37.678Z,9.75
2022-11-26T08:42:05.929Z,11.18
2022-11-26T08:44:34.217Z,10.63
2022-11-26T08:47:02.152Z,10.57
2022-11-26T08:49:30.345Z,10.15
2022-11-26T08:51:58.429Z,10.65
2022-11-26T08:54:26.811Z,11.90
2022-11-26T08:56:56.901Z,10.68
2022-11-26T08:59:25.734Z,10.43
2022-11-26T09:01:54.040Z,10.27
2022-11-26T09:04:23.338Z,10.85
2022-11-26T09:06:54.477Z,9.77
2022-11-26T09:09:22.586Z,8.63
2022-11-26T09:11:54.237Z,9.40
2022-11-26T09:14:25.833Z,8.60
2022-11-26T09:16:54.543Z,8.70
2022-11-26T09:19:22.896Z,8.85
2022-11-26T09:21:51.286Z,8.20
2022-11-26T09:24:19.822Z,8.10
2022-11-26T09:26:49.039Z,8.60
2022-11-26T09:29:19.801Z,8.13
2022-11-26T09:32:21.474Z,8.63
2022-11-26T09:34:39.027Z,8.25
2022-11-26T09:37:07.814Z,8.90
2022-11-26T09:39:36.130Z,8.50
2022-11-26T09:42:07.752Z,8.35
2022-11-26T09:44:55.096Z,8.35
2022-11-26T09:47:27.869Z,8.57
2022-11-26T09:50:07.499Z,8.02
2022-11-26T09:52:40.626Z,8.18
2022-11-26T09:55:16.681Z,8.80
2022-11-26T09:57:50.558Z,9.35
2022-11-26T10:00:27.242Z,10.07
2022-11-26T10:02:58.660Z,8.38
2022-11-26T10:05:43.523Z,8.25
2022-11-26T10:08:52.725Z,9.73
2022-11-26T10:11:26.583Z,8.02
2022-11-26T10:14:04.590Z,9.30
2022-11-26T10:16:42.466Z,9.55
2022-11-26T10:19:18.748Z,8.85
2022-11-26T10:21:59.105Z,8.35
2022-11-26T10:24:33.077Z,10.98
2022-11-26T10:27:06.526Z,7.75
2022-11-26T10:29:39.463Z,9.38
2022-11-26T10:32:15.760Z,13.48
2022-11-26T10:34:50.783Z,14.32
2022-11-26T10:37:19.389Z,10.65
2022-11-26T10:39:47.347Z,9.93
2022-11-26T10:42:18.922Z,11.82
2022-11-26T10:44:48.437Z,12.63
2022-11-26T10:47:22.758Z,10.30
2022-11-26T10:49:53.770Z,8.85
2022-11-26T10:52:26.196Z,8.60
